Walker, South Dakota
Current Conditions -  °F | °C
As of 2:21 AM on Thursday 27 Nov 2014 (Local Time) from KMBG Reporting Station
Broken Clouds Broken Clouds  
Wind Chill: -14°   Ceiling: 500
Heat Index:   Visibility: 10mi
Dew Point: -5°   Wind: 8mph
Humidity: 79%   Direction: 100°E
Pressure: 30.4"   Gusts: NA
Location:  45.91°N, 101.09°W
Report Text: KMBG 270921Z AUTO 10007KT 10SM BKN005 M18/M21 A3040 RMK AO2 T11781206
Loading
Personal Weather Stations






























Interactive Weather Map New forecast layout! Learn more

10-Day Weather Forecast

Advertisements
Track Severe Weather on mobile